Time;durP1;ratioP1;P1;durP2;ratioP2;P2;SDS_P1;SDS_P2;PMS_P1;PMS_P2;Temp;Humidity;BMP_temperature;BMP_pressure;BME280_temperature;BME280_humidity;BME280_pressure;Samples;Min_cycle;Max_cycle;Signal;HPM_P1;HPM_P2
2022/05/02 00:01:32;;;;;;;;;17.33;16.00;;;;;30.15;19.06;101391.53;5077988;27;45359;-83
2022/05/02 00:03:57;;;;;;;;;15.33;14.33;;;;;30.21;19.10;101402.13;5076648;28;45527;-82
2022/05/02 00:06:23;;;;;;;;;17.67;16.33;;;;;30.13;18.75;101385.25;5077442;27;45949;-83
2022/05/02 00:08:48;;;;;;;;;15.00;14.33;;;;;30.25;18.95;101422.91;5076213;28;45382;-82
2022/05/02 00:11:14;;;;;;;;;15.33;15.33;;;;;29.93;19.28;101368.06;5076516;28;45426;-82
2022/05/02 00:13:39;;;;;;;;;17.67;17.67;;;;;30.07;19.43;101397.41;5076564;28;45584;-82
2022/05/02 00:16:07;;;;;;;;;19.00;19.00;;;;;30.37;19.25;101443.28;5076136;28;49234;-82
2022/05/02 00:18:33;;;;;;;;;19.67;16.67;;;;;30.40;19.09;101440.38;5077660;28;45352;-82
2022/05/02 00:20:58;;;;;;;;;16.00;14.33;;;;;30.33;19.08;101428.00;5075776;28;45493;-82
2022/05/02 00:23:24;;;;;;;;;16.67;15.00;;;;;30.36;19.50;101409.53;5076456;28;45342;-82
2022/05/02 00:25:50;;;;;;;;;19.00;18.00;;;;;30.52;18.96;101425.16;5076022;28;48023;-82
2022/05/02 00:28:15;;;;;;;;;14.33;13.00;;;;;30.32;19.37;101396.09;5076119;28;46000;-82
2022/05/02 00:30:41;;;;;;;;;16.67;16.33;;;;;30.35;19.57;101407.78;5077691;28;45440;-82
2022/05/02 00:33:07;;;;;;;;;17.00;14.67;;;;;30.06;19.29;101371.91;5077401;27;45428;-82
2022/05/02 00:35:32;;;;;;;;;19.33;17.67;;;;;30.24;19.82;101411.09;5076976;27;46400;-82
2022/05/02 00:37:58;;;;;;;;;21.67;17.00;;;;;30.34;19.35;101416.06;5077240;28;45556;-82
2022/05/02 00:40:23;;;;;;;;;17.67;17.67;;;;;30.28;19.55;101395.38;5076113;28;45577;-82
2022/05/02 00:42:49;;;;;;;;;14.67;14.33;;;;;30.35;19.48;101426.94;5077088;27;45527;-82
2022/05/02 00:45:16;;;;;;;;;16.33;16.33;;;;;30.32;19.49;101418.88;5077019;27;46359;-82
2022/05/02 00:47:52;;;;;;;;;17.67;16.00;;;;;30.14;19.42;101379.72;5075963;28;45677;-82
2022/05/02 00:50:31;;;;;;;;;20.00;20.00;;;;;29.99;19.47;101367.72;5076801;27;45481;-82
2022/05/02 00:52:57;;;;;;;;;17.00;16.33;;;;;29.97;19.68;101366.03;5076646;27;45522;-82
2022/05/02 00:55:23;;;;;;;;;16.00;14.33;;;;;29.97;19.79;101357.81;5075566;28;47591;-82
2022/05/02 00:57:48;;;;;;;;;20.33;16.67;;;;;29.90;20.05;101349.06;5077048;27;45477;-82
2022/05/02 01:00:14;;;;;;;;;15.00;15.00;;;;;29.77;19.79;101324.16;5076948;27;45299;-82
2022/05/02 01:02:39;;;;;;;;;19.00;16.67;;;;;30.06;19.99;101366.44;5075785;28;45589;-82
2022/05/02 01:05:05;;;;;;;;;16.33;15.00;;;;;30.03;19.75;101366.59;5076246;27;46046;-82
2022/05/02 01:07:31;;;;;;;;;15.67;15.33;;;;;29.81;19.74;101335.84;5075629;28;45927;-82
2022/05/02 01:09:56;;;;;;;;;17.67;17.67;;;;;29.94;20.01;101367.97;5075642;28;45198;-82
2022/05/02 01:12:24;;;;;;;;;17.00;15.33;;;;;29.93;19.79;101373.53;5075575;28;45501;-82
2022/05/02 01:14:53;;;;;;;;;19.67;18.33;;;;;29.90;19.85;101377.31;5076448;27;45402;-82
2022/05/02 01:17:19;;;;;;;;;13.67;13.67;;;;;29.84;19.97;101382.22;5075245;28;45336;-82
2022/05/02 01:19:45;;;;;;;;;17.00;16.67;;;;;29.75;20.21;101373.47;5075042;28;45415;-82
2022/05/02 01:22:11;;;;;;;;;18.67;17.67;;;;;29.60;20.50;101364.22;5075132;28;45292;-82
2022/05/02 01:24:43;;;;;;;;;20.00;17.33;;;;;29.55;20.37;101368.16;5075175;28;46684;-82
2022/05/02 01:27:11;;;;;;;;;17.33;17.33;;;;;29.51;20.39;101366.56;5074940;28;45323;-82
2022/05/02 01:29:39;;;;;;;;;18.67;18.67;;;;;29.41;20.37;101357.94;5076492;27;45399;-82
2022/05/02 01:32:07;;;;;;;;;20.67;19.00;;;;;29.34;20.33;101353.72;5076480;27;45325;-82
2022/05/02 01:34:34;;;;;;;;;16.33;15.33;;;;;29.42;20.26;101371.53;5074762;28;48218;-82
2022/05/02 01:37:00;;;;;;;;;17.33;16.00;;;;;29.26;20.43;101351.38;5075576;27;45447;-82
2022/05/02 01:39:26;;;;;;;;;13.67;13.67;;;;;29.37;20.83;101365.41;5074949;28;45259;-82
2022/05/02 01:41:51;;;;;;;;;16.00;13.00;;;;;29.37;20.55;101376.34;5076329;27;45522;-82
2022/05/02 01:44:16;;;;;;;;;15.00;15.00;;;;;29.19;20.79;101341.69;5074868;28;48236;-82
2022/05/02 01:46:42;;;;;;;;;17.33;16.00;;;;;29.12;20.74;101348.44;5076191;27;45418;-82
2022/05/02 01:49:07;;;;;;;;;17.67;16.67;;;;;29.13;20.50;101344.72;5075996;27;45381;-81
2022/05/02 01:51:33;;;;;;;;;17.33;17.00;;;;;29.18;20.32;101364.50;5076316;28;45247;-82
2022/05/02 01:53:58;;;;;;;;;18.67;17.67;;;;;29.06;20.40;101349.63;5075692;27;46088;-82
2022/05/02 01:56:24;;;;;;;;;18.67;18.00;;;;;28.91;20.46;101329.41;5076226;27;45490;-83
2022/05/02 01:58:49;;;;;;;;;17.00;17.00;;;;;28.87;20.66;101331.38;5076163;27;45285;-83
2022/05/02 02:01:14;;;;;;;;;17.33;15.33;;;;;28.97;20.81;101348.19;5074735;28;46370;-82
2022/05/02 02:03:40;;;;;;;;;17.00;16.67;;;;;29.04;20.63;101370.66;5074298;28;47085;-83
2022/05/02 02:06:06;;;;;;;;;21.00;16.67;;;;;29.00;20.59;101350.81;5074356;28;45481;-83
2022/05/02 02:08:33;;;;;;;;;19.33;16.00;;;;;29.07;20.73;101373.22;5076183;27;45450;-83
2022/05/02 02:11:07;;;;;;;;;18.33;18.33;;;;;28.99;20.95;101365.41;5076006;27;45577;-83
2022/05/02 02:13:33;;;;;;;;;19.33;16.00;;;;;28.87;20.95;101341.44;5075716;27;45487;-83
2022/05/02 02:15:59;;;;;;;;;18.00;17.00;;;;;28.83;20.59;101339.81;5075647;27;45387;-83
2022/05/02 02:18:24;;;;;;;;;18.67;17.33;;;;;28.84;20.81;101331.53;5075489;28;45415;-82
2022/05/02 02:20:52;;;;;;;;;9.00;8.33;;;;;29.12;20.55;101367.56;5075824;27;45560;-83
2022/05/02 02:23:20;;;;;;;;;12.00;12.00;;;;;28.78;20.86;101318.19;5074198;28;47300;-83
2022/05/02 02:25:45;;;;;;;;;19.33;16.00;;;;;28.66;21.11;101308.72;5074322;28;45339;-83
2022/05/02 02:28:13;;;;;;;;;19.67;19.00;;;;;28.90;20.72;101349.47;5074172;28;45476;-83
2022/05/02 02:30:39;;;;;;;;;20.67;19.67;;;;;28.90;20.72;101353.09;5074352;28;45352;-83
2022/05/02 02:33:05;;;;;;;;;16.33;16.33;;;;;28.75;21.17;101323.81;5073775;28;47163;-83
2022/05/02 02:35:31;;;;;;;;;16.00;16.00;;;;;28.88;20.95;101340.47;5075811;27;45660;-83
2022/05/02 02:37:56;;;;;;;;;20.00;20.00;;;;;28.96;20.78;101362.84;5074397;28;45761;-83
2022/05/02 02:40:22;;;;;;;;;16.33;16.33;;;;;28.72;20.83;101330.31;5073842;28;45522;-83
2022/05/02 02:42:47;;;;;;;;;19.67;18.00;;;;;28.67;20.87;101329.63;5074146;28;48115;-83
2022/05/02 02:45:13;;;;;;;;;23.00;19.33;;;;;28.52;21.14;101305.75;5073621;28;48446;-83
2022/05/02 02:47:39;;;;;;;;;20.00;18.67;;;;;28.78;21.37;101355.56;5074344;28;45429;-83
2022/05/02 02:50:05;;;;;;;;;20.33;18.00;;;;;28.81;21.10;101352.66;5077863;28;45498;-84
2022/05/02 02:52:30;;;;;;;;;21.00;19.00;;;;;28.57;21.10;101317.34;5078518;27;45589;-83
2022/05/02 02:54:56;;;;;;;;;19.67;19.00;;;;;28.57;21.19;101331.00;5078861;27;45413;-83
2022/05/02 02:57:21;;;;;;;;;22.00;17.67;;;;;28.41;21.21;101309.88;5079052;27;45876;-83
2022/05/02 02:59:47;;;;;;;;;22.67;18.00;;;;;28.36;21.31;101311.94;5078869;27;45463;-83
2022/05/02 03:02:13;;;;;;;;;22.33;21.33;;;;;28.32;21.01;101304.84;5077369;28;48026;-83
2022/05/02 03:07:24;;;;;;;;;24.33;20.00;;;;;28.68;21.11;101347.78;5078861;28;45507;-82
2022/05/02 03:09:49;;;;;;;;;18.33;17.00;;;;;28.46;21.11;101300.59;5077671;28;45541;-83
2022/05/02 03:12:15;;;;;;;;;17.00;16.67;;;;;28.58;20.92;101313.66;5078225;27;45963;-83
2022/05/02 03:14:40;;;;;;;;;20.67;19.00;;;;;28.49;21.11;101305.91;5077073;28;45333;-83
2022/05/02 03:17:05;;;;;;;;;21.67;20.00;;;;;28.46;21.29;101316.97;5078688;27;45256;-83
2022/05/02 03:19:31;;;;;;;;;18.33;12.00;;;;;28.36;21.41;101305.59;5078673;28;45187;-83
2022/05/02 03:21:56;;;;;;;;;23.00;19.00;;;;;28.54;21.14;101329.28;5078506;27;45281;-82
2022/05/02 03:24:22;;;;;;;;;25.67;19.33;;;;;28.17;21.38;101256.47;5068471;28;45628;-82
2022/05/02 03:26:47;;;;;;;;;23.67;22.33;;;;;28.14;21.29;101262.06;5056634;28;45440;-83
2022/05/02 03:29:13;;;;;;;;;21.67;20.00;;;;;28.55;21.31;101321.97;5053750;28;45378;-82
2022/05/02 03:31:38;;;;;;;;;26.67;21.67;;;;;28.54;21.13;101317.50;5055487;28;45656;-83
2022/05/02 03:34:04;;;;;;;;;22.00;19.67;;;;;28.33;20.89;101273.88;5057595;28;45410;-83
2022/05/02 03:36:30;;;;;;;;;21.00;19.00;;;;;28.57;20.89;101331.00;5056366;28;45488;-83
2022/05/02 03:38:55;;;;;;;;;28.00;23.33;;;;;28.54;21.14;101314.78;5056404;28;45417;-83
2022/05/02 03:41:20;;;;;;;;;23.33;21.00;;;;;28.29;21.16;101282.28;5056152;28;52681;-83
2022/05/02 03:43:46;;;;;;;;;27.33;25.33;;;;;28.09;20.84;101272.28;5057513;28;45389;-83
2022/05/02 03:46:11;;;;;;;;;25.67;24.00;;;;;28.30;21.08;101284.03;5064658;28;45509;-83
2022/05/02 03:48:36;;;;;;;;;26.67;23.00;;;;;28.04;21.31;101232.50;5076296;27;45468;-83
2022/05/02 03:51:02;;;;;;;;;28.00;26.33;;;;;28.58;20.91;101322.72;5074648;28;46287;-83
2022/05/02 03:53:27;;;;;;;;;28.67;24.67;;;;;28.40;21.13;101302.66;5074473;28;45447;-83
2022/05/02 03:55:53;;;;;;;;;26.67;25.67;;;;;28.38;21.11;101304.59;5074871;28;45355;-83
2022/05/02 03:58:18;;;;;;;;;25.67;22.00;;;;;28.35;21.07;101309.28;5075231;27;45510;-82
2022/05/02 04:00:44;;;;;;;;;32.67;29.67;;;;;28.50;21.24;101318.59;5076252;27;45475;-82
2022/05/02 04:03:10;;;;;;;;;25.33;24.33;;;;;28.53;21.35;101294.75;5076437;28;45565;-82
2022/05/02 04:05:35;;;;;;;;;31.33;28.00;;;;;28.74;20.91;101319.31;5077736;28;45239;-82
2022/05/02 04:08:00;;;;;;;;;27.67;24.00;;;;;28.76;21.17;101314.63;5076647;28;45387;-82
2022/05/02 04:10:26;;;;;;;;;27.33;24.33;;;;;28.40;21.16;101241.75;5075991;28;47263;-82
2022/05/02 04:12:51;;;;;;;;;27.33;26.00;;;;;28.53;21.09;101261.13;5076182;28;45768;-82
2022/05/02 04:15:17;;;;;;;;;26.00;24.33;;;;;28.43;21.12;101251.63;5077525;27;45302;-82
2022/05/02 04:17:43;;;;;;;;;26.67;23.33;;;;;28.77;21.39;101308.22;5076629;28;45688;-82
2022/05/02 04:20:09;;;;;;;;;25.33;25.00;;;;;28.83;21.17;101312.50;5077301;27;46488;-83
2022/05/02 04:22:36;;;;;;;;;29.33;23.33;;;;;28.81;21.09;101309.84;5077331;27;45463;-83
2022/05/02 04:25:01;;;;;;;;;25.67;24.00;;;;;28.82;21.09;101313.44;5076198;28;45454;-83
2022/05/02 04:27:27;;;;;;;;;27.33;24.67;;;;;28.83;21.08;101304.31;5077130;28;45616;-83
2022/05/02 04:29:52;;;;;;;;;27.33;26.00;;;;;28.55;21.17;101253.75;5076185;28;48035;-83
2022/05/02 04:32:18;;;;;;;;;30.00;26.67;;;;;28.73;21.08;101290.22;5077290;27;45445;-82
2022/05/02 04:34:43;;;;;;;;;34.00;28.00;;;;;28.86;21.11;101309.59;5077482;27;45515;-82
2022/05/02 04:37:09;;;;;;;;;26.67;24.33;;;;;28.62;21.23;101271.66;5075913;28;45399;-83
2022/05/02 04:39:34;;;;;;;;;26.67;24.67;;;;;28.73;21.04;101288.41;5075579;28;47080;-82
2022/05/02 04:42:00;;;;;;;;;29.67;25.67;;;;;28.82;20.83;101314.34;5075598;28;45387;-83
2022/05/02 04:44:25;;;;;;;;;23.67;22.67;;;;;28.53;20.70;101267.47;5076988;27;45330;-83
2022/05/02 04:46:51;;;;;;;;;27.00;24.00;;;;;28.75;20.54;101296.50;5087814;27;45470;-83
2022/05/02 04:49:16;;;;;;;;;26.00;26.00;;;;;28.82;20.85;101297.97;5075643;28;47823;-82
2022/05/02 04:51:41;;;;;;;;;26.67;24.33;;;;;28.93;20.72;101294.72;5077166;27;45455;-78
2022/05/02 04:54:07;;;;;;;;;23.33;23.33;;;;;28.88;20.94;101280.41;5077167;27;45500;-81
2022/05/02 04:56:32;;;;;;;;;26.67;25.67;;;;;29.20;20.64;101324.34;5075256;28;45525;-81
2022/05/02 04:58:57;;;;;;;;;27.33;24.67;;;;;29.12;20.92;101305.59;5076832;27;46182;-79
2022/05/02 05:01:23;;;;;;;;;24.33;24.00;;;;;29.06;20.68;101278.59;5060684;27;49947;-80
2022/05/02 05:03:48;;;;;;;;;26.00;26.00;;;;;28.84;20.56;101241.41;5057451;28;45430;-81
2022/05/02 05:06:14;;;;;;;;;23.67;23.33;;;;;28.95;20.36;101287.31;5076687;27;45477;-77
2022/05/02 05:08:39;;;;;;;;;26.33;24.33;;;;;28.96;20.70;101288.19;5071909;27;46375;-79
2022/05/02 05:11:42;;;;;;;;;24.33;23.67;;;;;29.14;20.68;101321.91;5072937;28;45589;-80
2022/05/02 05:17:56;;;;;;;;;22.67;21.33;;;;;28.85;20.73;101292.34;5073065;28;45352;-78
2022/05/02 05:20:29;;;;;;;;;28.67;25.00;;;;;29.03;20.53;101306.03;5019578;28;45961;-77
2022/05/02 05:23:03;;;;;;;;;23.67;22.67;;;;;29.00;20.62;101315.31;5032759;28;45567;-77
2022/05/02 05:25:38;;;;;;;;;27.00;25.33;;;;;29.09;20.52;101319.41;5029381;28;45440;-77
2022/05/02 05:28:06;;;;;;;;;31.33;30.00;;;;;29.11;20.47;101324.78;5033069;28;45805;-77
2022/05/02 05:30:40;;;;;;;;;26.00;21.33;;;;;29.14;20.42;101319.16;5030293;28;48354;-77
2022/05/02 05:33:14;;;;;;;;;28.00;26.00;;;;;29.21;20.34;101326.09;5025619;28;45789;-77
2022/05/02 05:36:07;;;;;;;;;29.00;24.67;;;;;29.13;20.51;101322.84;5012426;28;45391;-78
2022/05/02 05:38:59;;;;;;;;;28.00;26.00;;;;;28.88;20.34;101324.97;5033320;28;45572;-79
2022/05/02 05:41:54;;;;;;;;;28.67;27.33;;;;;28.77;20.80;101321.88;5033021;28;45717;-79
2022/05/02 05:44:44;;;;;;;;;30.00;27.67;;;;;28.97;20.60;101317.28;5031730;28;45562;-81
2022/05/02 05:47:31;;;;;;;;;25.00;24.00;;;;;28.92;20.65;101318.41;5016565;28;45425;-77
2022/05/02 05:50:03;;;;;;;;;28.00;25.67;;;;;28.79;20.85;101313.59;5033529;28;45556;-79
2022/05/02 05:52:41;;;;;;;;;31.33;30.00;;;;;28.78;20.87;101323.66;5069798;27;46001;-76
2022/05/02 05:55:14;;;;;;;;;28.00;28.00;;;;;28.91;20.90;101318.47;5073905;28;45487;-76
2022/05/02 05:57:49;;;;;;;;;32.33;26.33;;;;;29.02;20.64;101315.22;5073832;28;45443;-76
2022/05/02 06:00:15;;;;;;;;;31.00;26.67;;;;;29.01;20.74;101311.59;5054314;28;45504;-77
2022/05/02 06:02:47;;;;;;;;;30.33;26.67;;;;;28.99;20.72;101316.25;5059687;28;47530;-77
2022/05/02 06:05:13;;;;;;;;;29.33;27.67;;;;;28.95;20.39;101303.72;5057945;28;45410;-78
2022/05/02 06:07:39;;;;;;;;;28.33;27.33;;;;;29.02;20.64;101283.31;5071354;27;45497;-76
2022/05/02 06:10:05;;;;;;;;;30.67;30.00;;;;;29.00;20.01;101309.84;5055122;28;45570;-79
2022/05/02 06:12:31;;;;;;;;;31.00;28.67;;;;;28.90;20.62;101306.69;5060048;28;45597;-77
2022/05/02 06:20:34;;;;;;;;;33.67;29.67;;;;;29.23;20.35;101324.19;5059620;28;45437;-78
2022/05/02 06:23:01;;;;;;;;;31.00;31.00;;;;;29.15;20.44;101321.81;5063707;27;46308;-79
2022/05/02 06:25:33;;;;;;;;;37.00;29.33;;;;;28.99;20.49;101286.22;5056439;28;45531;-84
2022/05/02 06:28:02;;;;;;;;;29.67;26.67;;;;;29.08;20.42;101290.31;5065003;28;45444;-86
2022/05/02 06:30:29;;;;;;;;;31.33;30.00;;;;;29.19;20.21;101284.31;5065130;28;45669;-83
2022/05/02 06:32:58;;;;;;;;;32.33;31.00;;;;;29.26;19.92;101281.22;5053555;28;46554;-84
2022/05/02 06:35:28;;;;;;;;;32.00;28.67;;;;;29.12;20.01;101253.69;5053830;28;45488;-85
2022/05/02 06:38:03;;;;;;;;;26.33;26.33;;;;;29.40;20.12;101283.22;5055043;28;45328;-85
2022/05/02 06:40:45;;;;;;;;;36.00;32.33;;;;;29.59;20.37;101326.00;5055123;28;45762;-85
2022/05/02 06:43:52;;;;;;;;;31.67;29.00;;;;;29.01;20.26;101259.69;5052243;28;47030;-85
2022/05/02 06:46:20;;;;;;;;;36.00;32.00;;;;;29.24;20.22;101280.41;5073857;27;45521;-85
2022/05/02 06:48:45;;;;;;;;;34.33;31.67;;;;;29.46;19.88;101319.44;5093361;27;45549;-85
2022/05/02 06:51:20;;;;;;;;;31.33;30.33;;;;;29.40;20.17;101302.38;5093406;27;45550;-85
2022/05/02 06:53:56;;;;;;;;;33.67;31.33;;;;;29.54;19.98;101298.06;5093422;27;45554;-84
2022/05/02 06:56:46;;;;;;;;;35.00;31.00;;;;;29.66;20.35;101305.63;5094151;27;45425;-83
2022/05/02 06:59:34;;;;;;;;;36.33;34.00;;;;;29.91;20.19;101331.69;5078377;27;45488;-81
2022/05/02 07:02:11;;;;;;;;;39.00;34.33;;;;;29.97;20.04;101330.47;5065867;28;45444;-81
2022/05/02 07:04:53;;;;;;;;;34.00;32.00;;;;;29.88;20.08;101331.84;5062062;28;46459;-81
2022/05/02 07:07:35;;;;;;;;;36.00;34.00;;;;;29.84;19.63;101330.25;5065408;28;45467;-80
2022/05/02 07:10:05;;;;;;;;;34.67;33.33;;;;;29.85;19.45;101335.63;5062129;28;45402;-80
2022/05/02 07:12:34;;;;;;;;;34.00;31.33;;;;;29.96;19.81;101315.91;5060856;28;45596;-80
2022/05/02 07:15:12;;;;;;;;;33.67;32.00;;;;;30.12;19.78;101326.91;5065834;28;46160;-82
2022/05/02 07:17:43;;;;;;;;;38.33;34.00;;;;;30.04;19.75;101327.34;5066847;28;46179;-81
2022/05/02 07:20:19;;;;;;;;;32.00;31.33;;;;;29.87;19.89;101313.66;5066259;28;45417;-81
2022/05/02 07:22:52;;;;;;;;;36.67;32.67;;;;;30.12;19.78;101324.16;5067053;28;45478;-82
2022/05/02 07:25:20;;;;;;;;;40.00;34.00;;;;;30.18;19.62;101323.81;5060424;28;48128;-82
2022/05/02 07:28:04;;;;;;;;;38.00;34.33;;;;;30.20;19.99;101318.28;5060546;28;45785;-82
2022/05/02 07:30:30;;;;;;;;;34.00;31.67;;;;;30.03;19.55;101289.13;5061680;28;45390;-80
2022/05/02 07:32:56;;;;;;;;;34.33;32.33;;;;;30.38;19.80;101328.22;5064697;27;45427;-81
2022/05/02 07:35:23;;;;;;;;;39.00;33.33;;;;;30.50;19.74;101339.50;5064754;27;46163;-81
2022/05/02 07:37:50;;;;;;;;;36.00;32.33;;;;;30.56;19.34;101329.09;5072152;28;45525;-81
2022/05/02 07:40:19;;;;;;;;;35.67;32.67;;;;;30.36;19.57;101297.28;5070914;28;45494;-80
2022/05/02 07:42:45;;;;;;;;;41.33;34.67;;;;;30.46;19.44;101292.22;5073907;27;45708;-81
2022/05/02 07:45:13;;;;;;;;;35.00;33.00;;;;;30.64;19.15;101327.78;5074679;27;45383;-82
2022/05/02 07:47:43;;;;;;;;;39.67;33.33;;;;;30.19;19.68;101309.19;5074288;27;45539;-81
2022/05/02 07:50:10;;;;;;;;;32.33;30.67;;;;;30.43;19.58;101326.13;5070927;28;45505;-81
2022/05/02 07:52:41;;;;;;;;;38.33;32.67;;;;;30.52;19.86;101330.22;5071038;28;45657;-82
2022/05/02 07:55:09;;;;;;;;;39.33;32.67;;;;;30.44;19.58;101330.63;5071962;28;47143;-82
2022/05/02 07:57:38;;;;;;;;;42.33;34.67;;;;;30.31;19.68;101326.78;5070102;28;46148;-81
2022/05/02 08:00:10;;;;;;;;;38.33;33.33;;;;;30.15;19.63;101324.00;5066753;28;45587;-80
2022/05/02 08:02:36;;;;;;;;;43.00;34.33;;;;;29.74;19.77;101245.03;5072598;28;45479;-82
2022/05/02 08:05:04;;;;;;;;;41.67;35.67;;;;;29.72;19.95;101238.78;5072809;28;47430;-81
2022/05/02 08:07:32;;;;;;;;;39.67;33.33;;;;;30.27;19.84;101338.88;5073772;28;45521;-81
2022/05/02 08:10:35;;;;;;;;;40.67;34.00;;;;;30.34;19.58;101344.88;5072253;28;45509;-85
2022/05/02 08:13:16;;;;;;;;;33.00;32.00;;;;;29.88;19.79;101252.53;5066180;28;45575;-84
2022/05/02 08:15:53;;;;;;;;;39.33;33.33;;;;;29.47;19.91;101179.06;5066568;28;46261;-83
2022/05/02 08:18:27;;;;;;;;;40.67;36.00;;;;;30.38;20.02;101317.28;5066044;28;45462;-81
2022/05/02 08:20:56;;;;;;;;;37.33;35.00;;;;;30.70;19.29;101333.75;5065275;28;45480;-83
2022/05/02 08:29:41;;;;;;;;;44.67;37.67;;;;;30.71;19.45;101337.41;5068392;28;45336;-84
2022/05/02 08:32:10;;;;;;;;;35.67;32.00;;;;;30.88;19.26;101326.34;5068605;28;45418;-83
2022/05/02 08:34:38;;;;;;;;;48.67;39.33;;;;;30.79;19.33;101329.63;5072911;27;45539;-80
2022/05/02 08:37:25;;;;;;;;;43.33;35.33;;;;;30.81;19.75;101321.31;5064262;28;46607;-80
2022/05/02 08:40:15;;;;;;;;;42.67;36.00;;;;;30.77;19.88;101326.09;5070295;27;45324;-80
2022/05/02 08:43:02;;;;;;;;;40.33;35.33;;;;;30.88;19.60;101331.81;5059880;28;45438;-81
2022/05/02 08:46:05;;;;;;;;;40.00;35.67;;;;;30.90;19.73;101326.25;5069643;28;45686;-80
2022/05/02 08:48:48;;;;;;;;;46.00;37.67;;;;;30.95;19.41;101314.06;5061443;28;48701;-80
2022/05/02 08:51:34;;;;;;;;;42.33;36.33;;;;;30.64;19.42;101267.50;5063901;28;45469;-80
2022/05/02 08:54:41;;;;;;;;;41.67;35.33;;;;;31.19;19.85;101331.94;5057180;28;45569;-81
2022/05/02 08:57:25;;;;;;;;;45.67;38.00;;;;;31.18;19.30;101330.16;5023355;28;45789;-79
2022/05/02 09:00:03;;;;;;;;;45.33;37.67;;;;;31.26;19.67;101327.88;5018293;28;46235;-79
2022/05/02 09:02:59;;;;;;;;;46.00;37.00;;;;;31.35;19.23;101326.44;5027843;28;45411;-79
2022/05/02 09:06:02;;;;;;;;;41.67;36.33;;;;;30.93;19.96;101246.66;5024690;28;45475;-80
2022/05/02 09:09:16;;;;;;;;;41.33;37.00;;;;;31.12;19.36;101252.84;5012618;28;45441;-80
2022/05/02 09:12:32;;;;;;;;;43.00;34.67;;;;;31.61;19.24;101335.88;5023749;28;46416;-80
2022/05/02 09:15:12;;;;;;;;;45.00;37.00;;;;;31.60;19.05;101315.81;4924223;28;45584;-78
2022/05/02 09:18:08;;;;;;;;;45.00;39.00;;;;;31.61;19.32;101323.03;4918415;28;45517;-79
2022/05/02 09:21:18;;;;;;;;;48.00;41.00;;;;;31.58;19.72;101322.34;4928262;28;45657;-79
2022/05/02 09:23:54;;;;;;;;;39.67;35.33;;;;;31.56;19.22;101292.25;4884564;29;48559;-78
2022/05/02 09:26:47;;;;;;;;;47.00;37.67;;;;;31.88;18.76;101315.94;4884596;29;45457;-79
2022/05/02 09:29:42;;;;;;;;;45.33;38.33;;;;;31.84;19.12;101307.00;4883792;29;45524;-80
2022/05/02 09:32:16;;;;;;;;;40.00;36.00;;;;;31.82;18.63;101292.53;4879383;29;45586;-79
2022/05/02 09:34:53;;;;;;;;;35.67;33.33;;;;;31.92;19.20;101293.69;4892125;28;45596;-79
2022/05/02 09:37:18;;;;;;;;;46.67;37.33;;;;;32.12;19.28;101314.44;4900179;28;45574;-81
2022/05/02 09:40:01;;;;;;;;;35.33;32.33;;;;;32.32;18.92;101302.19;4895530;28;45544;-81
2022/05/02 09:43:03;;;;;;;;;39.00;34.33;;;;;32.31;18.71;101308.66;4898788;28;45530;-81
2022/05/02 09:51:58;;;;;;;;;38.00;34.00;;;;;32.85;18.68;101311.69;4963196;28;45467;-75
2022/05/02 09:58:01;;;;;;;;;35.33;31.00;;;;;32.62;19.04;101290.19;4971910;28;45843;-78
2022/05/02 10:03:36;;;;;;;;;33.67;31.67;;;;;32.89;18.67;101264.63;5064135;28;45359;-80
2022/05/02 10:06:10;;;;;;;;;42.00;33.67;;;;;32.86;18.44;101251.09;5063286;27;45704;-77
2022/05/02 10:08:38;;;;;;;;;37.00;33.00;;;;;33.41;18.40;101306.97;5071139;28;45544;-78
2022/05/02 10:11:15;;;;;;;;;39.00;33.00;;;;;33.34;18.54;101301.00;5068093;28;45432;-77
2022/05/02 10:14:17;;;;;;;;;38.00;32.00;;;;;33.51;18.71;101304.47;5063148;28;45525;-78
2022/05/02 10:16:50;;;;;;;;;35.67;30.00;;;;;33.35;18.42;101268.91;5067981;28;45382;-77
2022/05/02 10:19:25;;;;;;;;;40.00;33.33;;;;;33.43;18.46;101291.25;5069565;28;45793;-79
2022/05/02 10:22:11;;;;;;;;;33.00;32.00;;;;;33.31;18.78;101295.72;5072054;28;45546;-79
2022/05/02 10:25:07;;;;;;;;;32.00;30.00;;;;;33.46;18.46;101304.78;5066183;27;45647;-81
2022/05/02 10:27:51;;;;;;;;;32.00;29.33;;;;;33.61;18.64;101296.47;5064548;28;45407;-82
2022/05/02 10:30:18;;;;;;;;;30.33;29.33;;;;;33.60;18.37;101267.16;5068681;28;46497;-80
2022/05/02 10:32:54;;;;;;;;;33.00;30.00;;;;;33.82;18.30;101294.97;5062042;28;45327;-79
2022/05/02 10:35:22;;;;;;;;;30.00;30.00;;;;;33.74;18.29;101253.34;5061356;27;45672;-81
2022/05/02 10:37:58;;;;;;;;;35.33;33.33;;;;;33.56;18.21;101240.88;5057079;28;45620;-81
2022/05/02 10:40:39;;;;;;;;;37.00;32.33;;;;;33.94;18.54;101284.97;5060652;28;46413;-78
2022/05/02 10:43:07;;;;;;;;;34.33;30.00;;;;;33.98;18.15;101277.34;5056914;28;45467;-80
2022/05/02 10:45:35;;;;;;;;;30.33;26.67;;;;;33.90;18.26;101238.50;5056147;28;45423;-80
2022/05/02 10:48:19;;;;;;;;;31.67;29.67;;;;;34.32;18.36;101278.59;5058421;27;45441;-82
2022/05/02 10:51:12;;;;;;;;;23.00;23.00;;;;;34.52;17.96;101279.84;5060938;28;45703;-85
2022/05/02 10:53:49;;;;;;;;;25.00;24.33;;;;;34.78;17.86;101276.16;5063575;28;45466;-85
2022/05/02 10:56:38;;;;;;;;;26.00;26.00;;;;;34.88;17.88;101271.72;5063952;28;45579;-84
2022/05/02 10:59:05;;;;;;;;;28.33;25.33;;;;;34.47;17.24;101215.97;5059872;28;45479;-84
2022/05/02 11:02:29;;;;;;;;;29.33;27.67;;;;;34.96;17.48;101261.00;5059425;28;46647;-81
2022/05/02 11:05:05;;;;;;;;;27.00;25.67;;;;;35.30;17.40;101268.53;5004876;28;45709;-82
2022/05/02 11:07:51;;;;;;;;;26.00;26.00;;;;;35.16;17.15;101258.56;5008803;28;46152;-82
2022/05/02 11:10:24;;;;;;;;;27.67;25.00;;;;;35.12;17.51;101233.13;4990983;28;45547;-80
2022/05/02 11:13:07;;;;;;;;;26.00;22.33;;;;;35.30;17.42;101250.16;5008760;28;48830;-80
2022/05/02 11:16:27;;;;;;;;;31.00;28.33;;;;;35.32;17.60;101256.44;5007511;28;45491;-81
2022/05/02 11:22:28;;;;;;;;;25.00;25.00;;;;;35.22;16.94;101245.19;4957091;28;45540;-82
2022/05/02 11:25:03;;;;;;;;;25.67;25.67;;;;;35.21;17.12;101246.19;4953953;28;47934;-82
2022/05/02 11:27:38;;;;;;;;;26.67;26.67;;;;;34.89;17.10;101250.56;4952173;28;45644;-84
2022/05/02 11:30:11;;;;;;;;;25.00;25.00;;;;;34.56;17.34;101227.28;4951897;28;45552;-84
2022/05/02 11:32:53;;;;;;;;;29.33;27.67;;;;;34.44;17.27;101224.44;4950859;28;45773;-84
2022/05/02 11:35:28;;;;;;;;;25.00;22.33;;;;;34.57;17.63;101251.09;4950857;28;48202;-84
2022/05/02 11:38:05;;;;;;;;;22.00;21.33;;;;;34.90;17.62;101246.81;4958464;28;45556;-81
2022/05/02 11:40:35;;;;;;;;;29.33;26.00;;;;;34.81;17.35;101229.97;4979810;28;45569;-81
2022/05/02 11:43:03;;;;;;;;;25.33;22.33;;;;;34.63;17.71;101223.94;5012495;28;45929;-82
2022/05/02 11:45:45;;;;;;;;;24.00;24.00;;;;;34.43;17.65;101210.78;5010329;28;45523;-83
2022/05/02 11:48:19;;;;;;;;;24.67;23.67;;;;;34.71;17.26;101237.13;5013399;28;45669;-86
2022/05/02 11:50:46;;;;;;;;;21.67;20.67;;;;;34.74;17.60;101214.88;5002780;28;45505;-83
2022/05/02 11:53:14;;;;;;;;;23.67;22.00;;;;;34.96;17.19;101227.91;5048366;28;45598;-82
2022/05/02 11:55:42;;;;;;;;;25.33;21.00;;;;;34.97;17.17;101220.53;5061031;28;47614;-82
2022/05/02 11:58:40;;;;;;;;;24.00;22.67;;;;;35.22;17.54;101231.41;5061037;28;45556;-80
2022/05/02 12:01:09;;;;;;;;;25.00;23.67;;;;;34.83;17.51;101178.34;5058945;28;45627;-82
2022/05/02 12:03:59;;;;;;;;;21.67;21.67;;;;;35.27;17.33;101236.56;5066246;28;45424;-82
2022/05/02 12:06:41;;;;;;;;;24.00;23.00;;;;;34.96;17.02;101222.38;5058209;28;47367;-82
2022/05/02 12:09:20;;;;;;;;;20.67;19.33;;;;;34.97;17.19;101223.28;5059266;28;45686;-83